createdAt,value
2023-02-19T00:00:23.772Z,1.91
2023-02-19T00:01:23.894Z,1.90
2023-02-19T00:02:24.024Z,2.27
2023-02-19T00:03:24.123Z,1.92
2023-02-19T00:04:24.186Z,1.64
2023-02-19T00:05:24.295Z,1.33
2023-02-19T00:06:24.409Z,1.47
2023-02-19T00:07:24.500Z,1.72
2023-02-19T00:08:24.618Z,2.11
2023-02-19T00:09:24.708Z,1.19
2023-02-19T00:10:24.776Z,1.84
2023-02-19T00:11:24.839Z,1.82
2023-02-19T00:12:24.913Z,1.92
2023-02-19T00:13:25.003Z,1.72
2023-02-19T00:14:25.081Z,1.21
2023-02-19T00:15:25.202Z,1.09
2023-02-19T00:16:25.299Z,1.85
2023-02-19T00:17:25.415Z,1.42
2023-02-19T00:18:25.519Z,1.61
2023-02-19T00:19:25.589Z,3.15
2023-02-19T00:20:25.697Z,2.57
2023-02-19T00:21:25.811Z,2.00
2023-02-19T00:22:25.919Z,1.60
2023-02-19T00:23:26.018Z,1.44
2023-02-19T00:24:26.137Z,1.40
2023-02-19T00:25:26.190Z,1.56
2023-02-19T00:26:26.273Z,1.73
2023-02-19T00:27:26.364Z,1.45
2023-02-19T00:43:27.900Z,0.85
2023-02-19T02:00:37.942Z,1.69
2023-02-19T02:01:38.187Z,2.73
2023-02-19T02:02:38.247Z,1.97
2023-02-19T02:03:38.399Z,1.37
2023-02-19T02:04:38.544Z,1.16
2023-02-19T02:05:38.684Z,1.46
2023-02-19T02:06:38.816Z,1.09
2023-02-19T02:07:38.943Z,1.32
2023-02-19T02:08:39.090Z,1.29
2023-02-19T02:09:39.200Z,1.03
2023-02-19T02:10:39.300Z,1.32
2023-02-19T02:11:39.374Z,1.25
2023-02-19T02:12:39.456Z,1.13
2023-02-19T02:13:39.547Z,1.11
2023-02-19T02:14:39.648Z,1.48
2023-02-19T02:15:39.769Z,1.33
2023-02-19T02:16:39.917Z,1.17
2023-02-19T02:17:40.054Z,1.08
2023-02-19T02:18:40.183Z,1.20
2023-02-19T02:19:40.309Z,1.26
2023-02-19T02:20:40.404Z,1.17
2023-02-19T02:21:40.527Z,0.69
2023-02-19T02:22:40.622Z,1.21
2023-02-19T02:23:40.710Z,0.99
2023-02-19T02:24:40.812Z,0.61
2023-02-19T02:25:40.939Z,0.71
2023-02-19T02:26:41.110Z,0.49
2023-02-19T02:27:41.177Z,1.69
2023-02-19T02:28:41.266Z,2.07
2023-02-19T02:29:41.402Z,2.04
2023-02-19T02:30:41.519Z,2.31
2023-02-19T02:31:41.786Z,2.14
2023-02-19T03:24:47.873Z,0.82
2023-02-19T03:25:47.968Z,0.68
2023-02-19T03:26:48.034Z,0.73
2023-02-19T03:27:48.132Z,0.71
2023-02-19T03:28:48.200Z,0.81
2023-02-19T03:29:48.308Z,1.00
2023-02-19T03:30:48.416Z,0.79
2023-02-19T03:31:48.639Z,1.03
2023-02-19T05:05:57.872Z,1.09
2023-02-19T05:06:57.980Z,0.85
2023-02-19T05:07:58.113Z,0.95
2023-02-19T05:08:58.224Z,0.96
2023-02-19T05:09:58.332Z,1.06
2023-02-19T05:10:58.413Z,0.90
2023-02-19T05:11:58.503Z,1.07
2023-02-19T05:12:58.559Z,1.07
2023-02-19T06:43:07.873Z,1.87
2023-02-19T06:44:07.954Z,1.56
2023-02-19T06:45:08.116Z,1.29
2023-02-19T08:24:17.806Z,4.23
2023-02-19T08:25:17.811Z,3.95
2023-02-19T08:26:17.833Z,3.37
2023-02-19T08:27:17.840Z,2.90
2023-02-19T08:28:17.857Z,3.10
2023-02-19T08:29:17.861Z,3.59
2023-02-19T08:30:17.944Z,4.69
2023-02-19T08:31:18.001Z,4.55
2023-02-19T08:32:17.943Z,4.24
2023-02-19T08:33:17.938Z,4.34
2023-02-19T08:34:17.958Z,2.72
2023-02-19T08:35:17.976Z,2.77
2023-02-19T08:36:18.051Z,2.36
2023-02-19T08:37:18.014Z,1.69
2023-02-19T08:38:18.041Z,1.62
2023-02-19T08:39:20.087Z,2.11
2023-02-19T08:40:18.059Z,2.02
2023-02-19T08:41:18.094Z,1.87
2023-02-19T08:42:18.059Z,1.67
2023-02-19T08:43:18.054Z,1.89
2023-02-19T08:44:18.080Z,2.25
2023-02-19T08:45:18.067Z,1.59
2023-02-19T08:46:18.135Z,1.25
2023-02-19T08:47:18.060Z,1.16
2023-02-19T08:48:18.057Z,1.81
2023-02-19T08:49:18.065Z,1.23
2023-02-19T08:50:18.056Z,1.41
2023-02-19T08:51:18.060Z,1.39
2023-02-19T08:52:18.131Z,0.88
2023-02-19T08:53:18.053Z,1.23
2023-02-19T08:54:18.057Z,0.91
2023-02-19T08:55:18.070Z,0.93
2023-02-19T08:56:18.078Z,0.79
2023-02-19T08:57:18.097Z,0.86
2023-02-19T08:58:18.103Z,1.52
2023-02-19T08:59:18.112Z,1.33
2023-02-19T09:00:18.131Z,3.01
2023-02-19T09:01:18.231Z,2.13
2023-02-19T09:02:18.132Z,1.56
2023-02-19T09:03:18.126Z,1.92
2023-02-19T09:04:18.163Z,1.74
2023-02-19T09:05:18.097Z,1.77
2023-02-19T09:06:18.091Z,1.35
2023-02-19T09:07:18.072Z,1.16
2023-02-19T09:08:18.064Z,1.23
2023-02-19T09:09:18.066Z,0.77
2023-02-19T09:10:18.056Z,0.94
2023-02-19T09:11:18.052Z,2.31
2023-02-19T09:12:18.022Z,1.85
2023-02-19T09:13:18.019Z,1.44
2023-02-19T09:14:18.018Z,2.74
2023-02-19T09:15:18.013Z,2.27
2023-02-19T09:16:18.005Z,0.89
2023-02-19T09:17:17.977Z,0.99
2023-02-19T09:18:17.973Z,1.14
2023-02-19T09:19:17.960Z,1.18
2023-02-19T09:20:17.942Z,1.72
2023-02-19T09:21:17.928Z,1.25
2023-02-19T09:22:17.936Z,1.33
2023-02-19T09:23:17.923Z,0.85
2023-02-19T09:24:17.961Z,1.56
2023-02-19T09:25:18.008Z,1.60
2023-02-19T09:26:18.031Z,1.72
2023-02-19T09:27:18.034Z,1.61
2023-02-19T09:28:18.018Z,1.49
2023-02-19T09:29:18.012Z,0.69
2023-02-19T09:30:18.054Z,0.82
2023-02-19T09:31:18.075Z,1.25
2023-02-19T09:32:19.342Z,1.83
2023-02-19T09:33:18.082Z,2.93
2023-02-19T09:34:18.126Z,2.66
2023-02-19T09:42:18.318Z,1.77
2023-02-19T09:43:18.286Z,2.23
2023-02-19T09:44:18.301Z,2.71
2023-02-19T09:45:18.300Z,1.67
2023-02-19T10:42:27.934Z,1.17
2023-02-19T10:43:28.079Z,1.24
2023-02-19T10:44:28.356Z,0.53
2023-02-19T10:45:28.540Z,0.65
2023-02-19T10:46:28.780Z,1.27
2023-02-19T10:47:28.933Z,0.86
2023-02-19T10:48:29.130Z,1.04
2023-02-19T10:49:29.343Z,1.32
2023-02-19T10:50:29.555Z,0.81
2023-02-19T10:51:29.758Z,1.21
2023-02-19T10:52:29.973Z,0.90
2023-02-19T10:53:30.199Z,0.81
2023-02-19T10:54:30.437Z,0.96
2023-02-19T10:55:30.634Z,0.82
2023-02-19T10:56:30.826Z,1.27
2023-02-19T10:57:31.027Z,0.89
2023-02-19T10:58:31.231Z,0.68
2023-02-19T10:59:31.456Z,0.48
2023-02-19T11:00:31.671Z,0.97
2023-02-19T11:01:31.890Z,0.97
2023-02-19T11:02:32.055Z,0.92
2023-02-19T11:03:32.235Z,1.00
2023-02-19T11:04:32.432Z,1.11
2023-02-19T11:05:32.619Z,1.75
2023-02-19T11:06:34.951Z,1.12
2023-02-19T11:07:32.770Z,0.94
2023-02-19T11:08:32.787Z,1.48
2023-02-19T11:09:32.798Z,0.96
2023-02-19T11:10:33.070Z,1.32
2023-02-19T11:11:32.836Z,1.12
2023-02-19T11:12:32.855Z,1.36
2023-02-19T11:13:33.051Z,1.14
2023-02-19T11:14:33.174Z,0.95
2023-02-19T11:15:33.428Z,1.96
2023-02-19T11:16:33.597Z,1.33
2023-02-19T11:17:33.781Z,0.85
2023-02-19T11:18:33.988Z,0.94
2023-02-19T11:19:34.172Z,1.01
2023-02-19T11:20:34.348Z,0.91
2023-02-19T11:21:34.501Z,0.79
2023-02-19T11:22:34.682Z,0.60
2023-02-19T11:23:34.925Z,0.55
2023-02-19T11:24:35.184Z,0.72
2023-02-19T11:25:35.286Z,0.66
2023-02-19T11:26:35.478Z,0.65
2023-02-19T11:27:35.675Z,0.85
2023-02-19T11:28:35.859Z,0.98
2023-02-19T11:29:36.021Z,0.82
2023-02-19T11:30:36.610Z,0.67
2023-02-19T11:31:36.337Z,0.72
2023-02-19T11:32:36.107Z,0.63
2023-02-19T11:33:36.272Z,0.79
2023-02-19T11:34:36.085Z,0.96
2023-02-19T11:35:36.122Z,0.81
2023-02-19T11:36:36.327Z,0.64
2023-02-19T11:37:36.580Z,0.99
2023-02-19T11:38:36.764Z,1.00
2023-02-19T11:39:36.962Z,0.61
2023-02-19T11:40:37.174Z,0.97
2023-02-19T11:41:37.356Z,0.68
2023-02-19T11:42:37.550Z,0.84
2023-02-19T11:43:37.759Z,1.05
2023-02-19T11:44:37.943Z,0.62
2023-02-19T11:45:38.151Z,0.56
2023-02-19T11:46:38.381Z,1.06
2023-02-19T11:47:38.565Z,0.71
2023-02-19T11:48:38.795Z,0.78
2023-02-19T11:49:38.973Z,0.76
2023-02-19T11:50:39.150Z,0.52
2023-02-19T11:51:39.345Z,0.62
2023-02-19T11:52:39.527Z,0.59
2023-02-19T11:53:39.732Z,0.85
2023-02-19T11:54:39.915Z,0.36
2023-02-19T11:55:40.099Z,0.79
2023-02-19T11:56:40.316Z,0.91
2023-02-19T11:57:40.482Z,0.70
2023-02-19T11:58:40.692Z,0.66
2023-02-19T11:59:40.851Z,0.78
2023-02-19T12:00:41.051Z,0.75
2023-02-19T12:01:41.349Z,0.58
2023-02-19T12:02:41.452Z,0.80
2023-02-19T12:03:41.788Z,0.57
2023-02-19T12:04:41.834Z,0.63
2023-02-19T12:05:41.989Z,1.13
2023-02-19T12:06:42.199Z,0.74
2023-02-19T12:07:42.430Z,0.70
2023-02-19T12:08:42.667Z,0.51
2023-02-19T12:09:42.917Z,0.52
2023-02-19T12:10:43.157Z,0.62
2023-02-19T15:09:57.825Z,0.62
2023-02-19T15:10:58.040Z,0.83
2023-02-19T15:11:58.231Z,0.78
2023-02-19T15:12:58.423Z,0.53
2023-02-19T15:13:58.587Z,0.80
2023-02-19T15:14:58.659Z,1.02
2023-02-19T15:15:58.940Z,0.88
2023-02-19T15:16:59.050Z,0.59
2023-02-19T15:17:59.245Z,0.59
2023-02-19T15:18:59.375Z,0.51
2023-02-19T15:19:59.567Z,0.56
2023-02-19T15:20:59.636Z,0.85
2023-02-19T15:21:59.812Z,0.70
2023-02-19T15:22:59.998Z,0.69
2023-02-19T15:24:00.153Z,0.57
2023-02-19T15:25:00.441Z,0.79
2023-02-19T15:26:00.634Z,0.73
2023-02-19T15:27:00.820Z,1.02
2023-02-19T16:05:07.920Z,1.32
2023-02-19T16:06:08.109Z,1.09
2023-02-19T16:07:08.276Z,1.73
2023-02-19T16:08:08.452Z,1.47
2023-02-19T16:58:18.013Z,3.69
2023-02-19T16:59:18.041Z,4.58
2023-02-19T17:00:18.283Z,3.00
2023-02-19T17:01:18.640Z,1.87
2023-02-19T17:02:18.708Z,1.35
2023-02-19T17:03:18.942Z,1.39
2023-02-19T17:04:19.210Z,1.76
2023-02-19T17:05:19.360Z,2.40
2023-02-19T17:06:19.500Z,1.67
2023-02-19T17:07:19.664Z,1.75
2023-02-19T17:08:19.886Z,1.41
2023-02-19T17:09:20.083Z,1.37
2023-02-19T17:48:27.988Z,1.97
2023-02-19T17:49:28.248Z,1.94
2023-02-19T19:26:47.923Z,1.74
2023-02-19T19:27:48.099Z,1.51
2023-02-19T19:28:48.281Z,1.48
2023-02-19T19:29:48.451Z,1.61
2023-02-19T19:30:48.633Z,1.40
2023-02-19T19:31:48.848Z,1.41
2023-02-19T19:32:48.999Z,1.57
2023-02-19T19:33:49.147Z,1.77
2023-02-19T20:15:58.018Z,1.54
2023-02-19T20:16:58.144Z,1.45
2023-02-19T20:17:58.311Z,1.47
2023-02-19T20:18:58.491Z,1.26
2023-02-19T20:19:58.766Z,1.39
2023-02-19T20:20:58.934Z,1.12
2023-02-19T20:21:59.099Z,1.52
2023-02-19T20:22:59.361Z,1.35
2023-02-19T20:23:59.528Z,1.24
2023-02-19T20:24:59.694Z,1.06
2023-02-19T20:25:59.881Z,0.99
2023-02-19T20:27:00.054Z,1.34
2023-02-19T20:28:00.245Z,0.99
2023-02-19T20:29:00.465Z,1.17
2023-02-19T20:30:00.593Z,1.34
2023-02-19T20:31:00.898Z,1.02
2023-02-19T20:32:01.100Z,1.22
2023-02-19T20:33:01.153Z,0.90
2023-02-19T20:34:01.371Z,1.19
2023-02-19T20:35:01.591Z,1.14
2023-02-19T20:36:01.790Z,1.19
2023-02-19T20:37:01.962Z,1.39
2023-02-19T20:38:02.171Z,1.43
2023-02-19T21:32:07.929Z,3.15
2023-02-19T21:33:07.877Z,3.35
2023-02-19T21:34:07.968Z,3.40
2023-02-19T21:35:08.049Z,3.12
2023-02-19T21:36:08.133Z,2.94
2023-02-19T21:37:08.220Z,3.83
2023-02-19T21:38:08.292Z,3.02
2023-02-19T21:39:08.362Z,2.97
2023-02-19T21:40:08.409Z,2.70
2023-02-19T21:41:08.460Z,3.15
2023-02-19T21:42:08.526Z,3.29
2023-02-19T21:43:08.571Z,2.21
2023-02-19T21:44:08.625Z,2.63
2023-02-19T21:45:08.674Z,2.54
2023-02-19T21:46:08.729Z,2.32
2023-02-19T21:47:08.780Z,2.21
2023-02-19T21:48:08.932Z,2.35
2023-02-19T21:49:08.991Z,2.01
2023-02-19T21:50:09.043Z,2.76
2023-02-19T21:51:09.084Z,2.89
2023-02-19T21:52:09.141Z,2.69
2023-02-19T21:53:09.185Z,2.63
2023-02-19T21:54:09.252Z,2.53
2023-02-19T21:55:09.292Z,2.63
2023-02-19T21:56:09.348Z,2.17
2023-02-19T21:57:09.408Z,2.76
2023-02-19T21:58:09.423Z,2.86
2023-02-19T21:59:09.488Z,2.74
2023-02-19T22:00:09.517Z,2.73
2023-02-19T22:01:09.610Z,3.04
2023-02-19T22:02:09.654Z,3.08
2023-02-19T22:03:09.734Z,3.39
2023-02-19T22:04:09.779Z,3.93
2023-02-19T22:05:09.839Z,3.54
2023-02-19T22:06:10.285Z,3.51
2023-02-19T22:07:09.970Z,3.12
2023-02-19T22:08:10.061Z,3.14
2023-02-19T22:09:10.173Z,2.58
2023-02-19T22:10:10.280Z,2.85
2023-02-19T22:11:10.368Z,3.29
2023-02-19T22:12:10.449Z,2.91
2023-02-19T22:13:10.537Z,2.67
2023-02-19T22:14:10.617Z,2.83
2023-02-19T22:15:10.701Z,2.58
2023-02-19T22:16:11.231Z,3.46
2023-02-19T22:17:10.867Z,3.54
2023-02-19T22:18:10.960Z,2.81
2023-02-19T22:19:11.066Z,2.87
2023-02-19T22:20:11.115Z,3.31
2023-02-19T22:21:11.175Z,2.71
2023-02-19T22:22:11.221Z,3.12
2023-02-19T22:23:11.268Z,3.46
2023-02-19T22:24:11.433Z,3.23
2023-02-19T22:25:11.612Z,2.58
2023-02-19T22:26:12.221Z,2.98
2023-02-19T22:27:11.887Z,2.93
2023-02-19T22:28:11.958Z,2.22
2023-02-19T22:29:12.038Z,2.77
2023-02-19T22:30:12.138Z,2.63
2023-02-19T22:31:12.186Z,2.58
2023-02-19T22:32:12.354Z,2.87
2023-02-19T22:33:12.333Z,2.90
2023-02-19T22:34:12.411Z,2.84
2023-02-19T22:35:14.794Z,2.72
2023-02-19T22:36:12.816Z,2.71
2023-02-19T22:37:12.551Z,2.94
2023-02-19T22:38:12.574Z,3.02
2023-02-19T22:39:12.609Z,3.07
2023-02-19T22:40:12.640Z,3.91
2023-02-19T22:41:12.689Z,3.58
2023-02-19T22:42:12.725Z,3.04
2023-02-19T22:43:12.753Z,3.48
2023-02-19T22:44:12.840Z,2.81
2023-02-19T22:45:12.820Z,3.04
2023-02-19T22:46:13.204Z,3.08
2023-02-19T22:47:12.891Z,2.87
2023-02-19T22:48:16.883Z,3.01
2023-02-19T22:49:13.965Z,2.97
2023-02-19T22:50:12.964Z,2.91
2023-02-19T22:51:13.035Z,2.95
2023-02-19T22:52:13.030Z,2.39
2023-02-19T22:53:13.057Z,3.05
2023-02-19T22:54:13.085Z,3.04
2023-02-19T22:55:13.124Z,2.75
2023-02-19T22:56:13.763Z,3.03
2023-02-19T22:57:13.172Z,2.96
2023-02-19T22:58:13.271Z,2.81
2023-02-19T22:59:13.366Z,3.04
2023-02-19T23:00:13.455Z,3.84
2023-02-19T23:01:13.662Z,3.89
2023-02-19T23:02:13.654Z,3.14
2023-02-19T23:03:13.734Z,3.45
2023-02-19T23:04:13.867Z,3.52
2023-02-19T23:05:13.876Z,3.59
2023-02-19T23:06:14.241Z,3.89
2023-02-19T23:07:14.015Z,3.78
2023-02-19T23:08:14.125Z,3.17
2023-02-19T23:09:14.213Z,3.16
2023-02-19T23:10:14.323Z,2.81
2023-02-19T23:11:14.388Z,3.06
2023-02-19T23:12:14.476Z,3.68
2023-02-19T23:13:14.537Z,4.09
2023-02-19T23:14:14.606Z,3.38
2023-02-19T23:15:14.746Z,3.33
2023-02-19T23:16:15.248Z,3.42
2023-02-19T23:17:15.055Z,3.98
2023-02-19T23:18:15.171Z,3.95
2023-02-19T23:46:17.973Z,3.12
2023-02-19T23:47:18.022Z,2.95
2023-02-19T23:48:18.258Z,3.31
2023-02-19T23:49:18.515Z,3.39
